sensor_id;sensor_type;location;lat;lon;timestamp;temperature;humidity
14946;DHT22;7567;50.916;6.900;2022-08-21T00:02:15;15.50;99.90
14946;DHT22;7567;50.916;6.900;2022-08-21T00:04:41;15.50;99.90
14946;DHT22;7567;50.916;6.900;2022-08-21T00:07:07;15.40;99.90
14946;DHT22;7567;50.916;6.900;2022-08-21T00:09:33;15.30;99.90
14946;DHT22;7567;50.916;6.900;2022-08-21T00:11:58;15.30;99.90
14946;DHT22;7567;50.916;6.900;2022-08-21T00:14:24;15.30;99.90
14946;DHT22;7567;50.916;6.900;2022-08-21T00:16:50;15.30;99.90
14946;DHT22;7567;50.916;6.900;2022-08-21T00:19:16;15.30;99.90
14946;DHT22;7567;50.916;6.900;2022-08-21T00:21:42;15.20;99.90
14946;DHT22;7567;50.916;6.900;2022-08-21T00:24:08;15.20;99.90
14946;DHT22;7567;50.916;6.900;2022-08-21T00:26:34;15.10;99.90
14946;DHT22;7567;50.916;6.900;2022-08-21T00:29:00;15.10;99.90
14946;DHT22;7567;50.916;6.900;2022-08-21T00:31:25;15.10;99.90
14946;DHT22;7567;50.916;6.900;2022-08-21T00:33:51;15.10;99.90
14946;DHT22;7567;50.916;6.900;2022-08-21T00:36:17;15.00;99.90
14946;DHT22;7567;50.916;6.900;2022-08-21T00:38:43;15.10;99.90
14946;DHT22;7567;50.916;6.900;2022-08-21T00:41:11;15.10;99.90
14946;DHT22;7567;50.916;6.900;2022-08-21T00:43:38;15.00;99.90
14946;DHT22;7567;50.916;6.900;2022-08-21T00:46:05;15.00;99.90
14946;DHT22;7567;50.916;6.900;2022-08-21T00:48:32;15.00;99.90
14946;DHT22;7567;50.916;6.900;2022-08-21T00:51:08;15.00;99.90
14946;DHT22;7567;50.916;6.900;2022-08-21T00:53:39;15.10;99.90
14946;DHT22;7567;50.916;6.900;2022-08-21T00:56:07;15.10;99.90
14946;DHT22;7567;50.916;6.900;2022-08-21T00:58:36;15.00;99.90
14946;DHT22;7567;50.916;6.900;2022-08-21T01:01:04;15.00;99.90
14946;DHT22;7567;50.916;6.900;2022-08-21T01:03:30;14.90;99.90
14946;DHT22;7567;50.916;6.900;2022-08-21T01:05:56;14.90;99.90
14946;DHT22;7567;50.916;6.900;2022-08-21T01:08:23;14.90;99.90
14946;DHT22;7567;50.916;6.900;2022-08-21T01:10:49;14.90;99.90
14946;DHT22;7567;50.916;6.900;2022-08-21T01:13:18;14.90;99.90
14946;DHT22;7567;50.916;6.900;2022-08-21T01:15:46;14.90;99.90
14946;DHT22;7567;50.916;6.900;2022-08-21T01:18:14;14.80;99.90
14946;DHT22;7567;50.916;6.900;2022-08-21T01:23:30;14.80;99.90
14946;DHT22;7567;50.916;6.900;2022-08-21T01:25:57;14.80;99.90
14946;DHT22;7567;50.916;6.900;2022-08-21T01:28:23;14.80;99.90
14946;DHT22;7567;50.916;6.900;2022-08-21T01:30:51;14.80;99.90
14946;DHT22;7567;50.916;6.900;2022-08-21T01:33:21;14.70;99.90
14946;DHT22;7567;50.916;6.900;2022-08-21T01:35:48;14.70;99.90
14946;DHT22;7567;50.916;6.900;2022-08-21T01:38:14;14.60;99.90
14946;DHT22;7567;50.916;6.900;2022-08-21T01:40:39;14.60;99.90
14946;DHT22;7567;50.916;6.900;2022-08-21T01:43:05;14.70;99.90
14946;DHT22;7567;50.916;6.900;2022-08-21T01:45:31;14.70;99.90
14946;DHT22;7567;50.916;6.900;2022-08-21T01:47:57;14.70;99.90
14946;DHT22;7567;50.916;6.900;2022-08-21T01:50:23;14.60;99.90
14946;DHT22;7567;50.916;6.900;2022-08-21T01:52:49;14.60;99.90
14946;DHT22;7567;50.916;6.900;2022-08-21T01:55:17;14.50;99.90
14946;DHT22;7567;50.916;6.900;2022-08-21T01:57:44;14.50;99.90
14946;DHT22;7567;50.916;6.900;2022-08-21T02:00:13;14.40;99.90
14946;DHT22;7567;50.916;6.900;2022-08-21T02:02:40;14.40;99.90
14946;DHT22;7567;50.916;6.900;2022-08-21T02:05:08;14.40;99.90
14946;DHT22;7567;50.916;6.900;2022-08-21T02:07:44;14.30;99.90
14946;DHT22;7567;50.916;6.900;2022-08-21T02:10:12;14.30;99.90
14946;DHT22;7567;50.916;6.900;2022-08-21T02:12:38;14.20;99.90
14946;DHT22;7567;50.916;6.900;2022-08-21T02:15:05;14.30;99.90
14946;DHT22;7567;50.916;6.900;2022-08-21T02:17:43;14.20;99.90
14946;DHT22;7567;50.916;6.900;2022-08-21T02:20:11;14.20;99.90
14946;DHT22;7567;50.916;6.900;2022-08-21T02:22:37;14.10;99.90
14946;DHT22;7567;50.916;6.900;2022-08-21T02:25:04;14.10;99.90
14946;DHT22;7567;50.916;6.900;2022-08-21T02:27:41;14.10;99.90
14946;DHT22;7567;50.916;6.900;2022-08-21T02:30:08;14.10;99.90
14946;DHT22;7567;50.916;6.900;2022-08-21T02:32:34;14.10;99.90
14946;DHT22;7567;50.916;6.900;2022-08-21T02:35:00;14.20;99.90
14946;DHT22;7567;50.916;6.900;2022-08-21T02:37:26;14.10;99.90
14946;DHT22;7567;50.916;6.900;2022-08-21T02:39:52;14.00;99.90
14946;DHT22;7567;50.916;6.900;2022-08-21T02:42:18;14.00;99.90
14946;DHT22;7567;50.916;6.900;2022-08-21T02:44:43;14.00;99.90
14946;DHT22;7567;50.916;6.900;2022-08-21T02:47:09;14.00;99.90
14946;DHT22;7567;50.916;6.900;2022-08-21T02:49:35;14.00;99.90
14946;DHT22;7567;50.916;6.900;2022-08-21T02:52:00;14.00;99.90
14946;DHT22;7567;50.916;6.900;2022-08-21T02:54:26;14.00;99.90
14946;DHT22;7567;50.916;6.900;2022-08-21T02:56:52;14.00;99.90
14946;DHT22;7567;50.916;6.900;2022-08-21T02:59:18;14.00;99.90
14946;DHT22;7567;50.916;6.900;2022-08-21T03:01:44;14.00;99.90
14946;DHT22;7567;50.916;6.900;2022-08-21T03:04:10;13.80;99.90
14946;DHT22;7567;50.916;6.900;2022-08-21T03:06:36;13.80;99.90
14946;DHT22;7567;50.916;6.900;2022-08-21T03:09:02;13.70;99.90
14946;DHT22;7567;50.916;6.900;2022-08-21T03:11:28;13.70;99.90
14946;DHT22;7567;50.916;6.900;2022-08-21T03:13:53;13.70;99.90
14946;DHT22;7567;50.916;6.900;2022-08-21T03:16:19;13.70;99.90
14946;DHT22;7567;50.916;6.900;2022-08-21T03:18:46;13.60;99.90
14946;DHT22;7567;50.916;6.900;2022-08-21T03:21:12;13.60;99.90
14946;DHT22;7567;50.916;6.900;2022-08-21T03:23:38;13.60;99.90
14946;DHT22;7567;50.916;6.900;2022-08-21T03:26:06;13.60;99.90
14946;DHT22;7567;50.916;6.900;2022-08-21T03:28:32;13.60;99.90
14946;DHT22;7567;50.916;6.900;2022-08-21T03:30:58;13.60;99.90
14946;DHT22;7567;50.916;6.900;2022-08-21T03:33:24;13.60;99.90
14946;DHT22;7567;50.916;6.900;2022-08-21T03:36:03;13.60;99.90
14946;DHT22;7567;50.916;6.900;2022-08-21T03:38:30;13.60;99.90
14946;DHT22;7567;50.916;6.900;2022-08-21T03:40:57;13.60;99.90
14946;DHT22;7567;50.916;6.900;2022-08-21T03:43:23;13.60;99.90
14946;DHT22;7567;50.916;6.900;2022-08-21T03:45:48;13.60;99.90
14946;DHT22;7567;50.916;6.900;2022-08-21T03:48:14;13.50;99.90
14946;DHT22;7567;50.916;6.900;2022-08-21T03:50:42;13.50;99.90
14946;DHT22;7567;50.916;6.900;2022-08-21T03:53:11;13.50;99.90
14946;DHT22;7567;50.916;6.900;2022-08-21T03:55:37;13.40;99.90
14946;DHT22;7567;50.916;6.900;2022-08-21T03:58:03;13.40;99.90
14946;DHT22;7567;50.916;6.900;2022-08-21T04:00:29;13.30;99.90
14946;DHT22;7567;50.916;6.900;2022-08-21T04:02:55;13.30;99.90
14946;DHT22;7567;50.916;6.900;2022-08-21T04:05:20;13.30;99.90
14946;DHT22;7567;50.916;6.900;2022-08-21T04:07:57;13.30;99.90
14946;DHT22;7567;50.916;6.900;2022-08-21T04:10:24;13.30;99.90
14946;DHT22;7567;50.916;6.900;2022-08-21T04:12:51;13.30;99.90
14946;DHT22;7567;50.916;6.900;2022-08-21T04:15:17;13.30;99.90
14946;DHT22;7567;50.916;6.900;2022-08-21T04:17:43;13.20;99.90
14946;DHT22;7567;50.916;6.900;2022-08-21T04:20:09;13.20;99.90
14946;DHT22;7567;50.916;6.900;2022-08-21T04:22:35;13.30;99.90
14946;DHT22;7567;50.916;6.900;2022-08-21T04:25:00;13.20;99.90
14946;DHT22;7567;50.916;6.900;2022-08-21T04:27:26;13.20;99.90
14946;DHT22;7567;50.916;6.900;2022-08-21T04:29:52;13.30;99.90
14946;DHT22;7567;50.916;6.900;2022-08-21T04:32:23;13.20;99.90
14946;DHT22;7567;50.916;6.900;2022-08-21T04:34:49;13.20;99.90
14946;DHT22;7567;50.916;6.900;2022-08-21T04:37:15;13.10;99.90
14946;DHT22;7567;50.916;6.900;2022-08-21T04:39:42;13.10;99.90
14946;DHT22;7567;50.916;6.900;2022-08-21T04:42:08;13.10;99.90
14946;DHT22;7567;50.916;6.900;2022-08-21T04:44:34;13.10;99.90
14946;DHT22;7567;50.916;6.900;2022-08-21T04:47:00;13.00;99.90
14946;DHT22;7567;50.916;6.900;2022-08-21T04:49:26;13.10;99.90
14946;DHT22;7567;50.916;6.900;2022-08-21T04:52:02;13.10;99.90
14946;DHT22;7567;50.916;6.900;2022-08-21T04:54:28;13.10;99.90
14946;DHT22;7567;50.916;6.900;2022-08-21T04:56:57;13.20;99.90
14946;DHT22;7567;50.916;6.900;2022-08-21T04:59:29;13.20;99.90
14946;DHT22;7567;50.916;6.900;2022-08-21T05:01:56;13.20;99.90
14946;DHT22;7567;50.916;6.900;2022-08-21T05:04:26;13.20;99.90
14946;DHT22;7567;50.916;6.900;2022-08-21T05:06:53;13.30;99.90
14946;DHT22;7567;50.916;6.900;2022-08-21T05:09:21;13.30;99.90
14946;DHT22;7567;50.916;6.900;2022-08-21T05:11:48;13.30;99.90
14946;DHT22;7567;50.916;6.900;2022-08-21T05:14:15;13.40;99.90
14946;DHT22;7567;50.916;6.900;2022-08-21T05:16:42;13.50;99.90
14946;DHT22;7567;50.916;6.900;2022-08-21T05:19:09;13.50;99.90
14946;DHT22;7567;50.916;6.900;2022-08-21T05:21:38;13.50;99.90
14946;DHT22;7567;50.916;6.900;2022-08-21T05:24:05;13.60;99.90
14946;DHT22;7567;50.916;6.900;2022-08-21T05:26:31;13.50;99.90
14946;DHT22;7567;50.916;6.900;2022-08-21T05:28:57;13.60;99.90
14946;DHT22;7567;50.916;6.900;2022-08-21T05:31:22;13.70;99.90
14946;DHT22;7567;50.916;6.900;2022-08-21T05:33:48;13.70;99.90
14946;DHT22;7567;50.916;6.900;2022-08-21T05:36:14;13.80;99.90
14946;DHT22;7567;50.916;6.900;2022-08-21T05:38:40;13.80;99.90
14946;DHT22;7567;50.916;6.900;2022-08-21T05:41:06;13.80;99.90
14946;DHT22;7567;50.916;6.900;2022-08-21T05:43:33;13.90;99.90
14946;DHT22;7567;50.916;6.900;2022-08-21T05:46:03;14.00;99.90
14946;DHT22;7567;50.916;6.900;2022-08-21T05:48:30;14.00;99.90
14946;DHT22;7567;50.916;6.900;2022-08-21T05:50:56;14.10;99.90
14946;DHT22;7567;50.916;6.900;2022-08-21T05:53:23;14.10;99.90
14946;DHT22;7567;50.916;6.900;2022-08-21T05:55:50;14.20;99.90
14946;DHT22;7567;50.916;6.900;2022-08-21T05:58:20;14.20;99.90
14946;DHT22;7567;50.916;6.900;2022-08-21T06:00:48;14.40;99.90
14946;DHT22;7567;50.916;6.900;2022-08-21T06:03:22;14.60;99.90
14946;DHT22;7567;50.916;6.900;2022-08-21T06:05:48;14.90;99.90
14946;DHT22;7567;50.916;6.900;2022-08-21T06:08:16;15.30;99.90
14946;DHT22;7567;50.916;6.900;2022-08-21T06:10:42;15.70;99.90
14946;DHT22;7567;50.916;6.900;2022-08-21T06:13:08;16.20;99.90
14946;DHT22;7567;50.916;6.900;2022-08-21T06:15:34;16.60;99.90
14946;DHT22;7567;50.916;6.900;2022-08-21T06:18:00;17.00;99.90
14946;DHT22;7567;50.916;6.900;2022-08-21T06:20:26;17.40;99.90
14946;DHT22;7567;50.916;6.900;2022-08-21T06:22:52;17.80;99.90
14946;DHT22;7567;50.916;6.900;2022-08-21T06:25:18;18.30;99.90
14946;DHT22;7567;50.916;6.900;2022-08-21T06:27:45;18.60;99.90
14946;DHT22;7567;50.916;6.900;2022-08-21T06:30:11;19.10;99.90
14946;DHT22;7567;50.916;6.900;2022-08-21T06:32:37;19.50;64.50
14946;DHT22;7567;50.916;6.900;2022-08-21T06:35:04;19.90;28.60
14946;DHT22;7567;50.916;6.900;2022-08-21T06:37:30;20.20;13.80
14946;DHT22;7567;50.916;6.900;2022-08-21T06:39:56;20.60;1.00
14946;DHT22;7567;50.916;6.900;2022-08-21T06:42:22;20.90;1.00
14946;DHT22;7567;50.916;6.900;2022-08-21T06:44:47;21.00;1.00
14946;DHT22;7567;50.916;6.900;2022-08-21T06:47:13;21.10;1.00
14946;DHT22;7567;50.916;6.900;2022-08-21T06:49:39;21.20;1.00
14946;DHT22;7567;50.916;6.900;2022-08-21T06:52:09;21.50;1.00
14946;DHT22;7567;50.916;6.900;2022-08-21T06:54:35;21.70;1.00
14946;DHT22;7567;50.916;6.900;2022-08-21T06:57:01;21.90;1.00
14946;DHT22;7567;50.916;6.900;2022-08-21T06:59:27;22.00;99.90
14946;DHT22;7567;50.916;6.900;2022-08-21T07:01:53;21.70;1.00
14946;DHT22;7567;50.916;6.900;2022-08-21T07:04:19;21.60;1.00
14946;DHT22;7567;50.916;6.900;2022-08-21T07:06:45;21.60;1.00
14946;DHT22;7567;50.916;6.900;2022-08-21T07:09:11;21.40;99.90
14946;DHT22;7567;50.916;6.900;2022-08-21T07:11:37;21.20;1.00
14946;DHT22;7567;50.916;6.900;2022-08-21T07:14:04;21.20;1.00
14946;DHT22;7567;50.916;6.900;2022-08-21T07:16:29;21.20;1.00
14946;DHT22;7567;50.916;6.900;2022-08-21T07:18:55;21.20;99.90
14946;DHT22;7567;50.916;6.900;2022-08-21T07:21:21;21.40;1.00
14946;DHT22;7567;50.916;6.900;2022-08-21T07:23:49;21.30;99.90
14946;DHT22;7567;50.916;6.900;2022-08-21T07:26:18;21.10;1.00
14946;DHT22;7567;50.916;6.900;2022-08-21T07:28:45;21.20;1.00
14946;DHT22;7567;50.916;6.900;2022-08-21T07:31:13;21.20;99.90
14946;DHT22;7567;50.916;6.900;2022-08-21T07:33:40;21.30;99.90
14946;DHT22;7567;50.916;6.900;2022-08-21T07:36:07;21.40;99.90
14946;DHT22;7567;50.916;6.900;2022-08-21T07:38:32;21.50;99.90
14946;DHT22;7567;50.916;6.900;2022-08-21T07:41:00;21.70;1.00
14946;DHT22;7567;50.916;6.900;2022-08-21T07:43:27;22.00;99.90
14946;DHT22;7567;50.916;6.900;2022-08-21T07:45:54;22.30;1.00
14946;DHT22;7567;50.916;6.900;2022-08-21T07:48:23;22.30;1.00
14946;DHT22;7567;50.916;6.900;2022-08-21T07:50:49;22.30;1.00
14946;DHT22;7567;50.916;6.900;2022-08-21T07:53:15;22.30;99.90
14946;DHT22;7567;50.916;6.900;2022-08-21T07:55:41;22.30;99.90
14946;DHT22;7567;50.916;6.900;2022-08-21T07:58:07;22.40;1.00
14946;DHT22;7567;50.916;6.900;2022-08-21T08:00:34;22.70;1.00
14946;DHT22;7567;50.916;6.900;2022-08-21T08:03:00;22.80;99.90
14946;DHT22;7567;50.916;6.900;2022-08-21T08:05:28;22.80;1.00
14946;DHT22;7567;50.916;6.900;2022-08-21T08:07:55;22.90;1.00
14946;DHT22;7567;50.916;6.900;2022-08-21T08:10:22;22.90;1.00
14946;DHT22;7567;50.916;6.900;2022-08-21T08:12:48;22.90;1.00
14946;DHT22;7567;50.916;6.900;2022-08-21T08:15:19;23.20;99.90
14946;DHT22;7567;50.916;6.900;2022-08-21T08:17:45;23.20;99.90
14946;DHT22;7567;50.916;6.900;2022-08-21T08:20:12;23.30;1.00
14946;DHT22;7567;50.916;6.900;2022-08-21T08:22:39;23.60;30.40
14946;DHT22;7567;50.916;6.900;2022-08-21T08:25:07;23.60;96.50
14946;DHT22;7567;50.916;6.900;2022-08-21T08:27:35;23.70;1.00
14946;DHT22;7567;50.916;6.900;2022-08-21T08:30:02;23.90;1.00
14946;DHT22;7567;50.916;6.900;2022-08-21T08:32:28;24.10;99.90
14946;DHT22;7567;50.916;6.900;2022-08-21T08:34:54;24.20;1.00
14946;DHT22;7567;50.916;6.900;2022-08-21T08:37:20;24.00;99.90
14946;DHT22;7567;50.916;6.900;2022-08-21T08:39:46;24.10;99.90
14946;DHT22;7567;50.916;6.900;2022-08-21T08:42:15;23.90;1.00
14946;DHT22;7567;50.916;6.900;2022-08-21T08:44:45;24.10;1.00
14946;DHT22;7567;50.916;6.900;2022-08-21T08:47:14;24.00;62.90
14946;DHT22;7567;50.916;6.900;2022-08-21T08:49:49;24.20;99.90
14946;DHT22;7567;50.916;6.900;2022-08-21T08:52:30;24.20;99.90
14946;DHT22;7567;50.916;6.900;2022-08-21T08:55:14;24.40;55.50
14946;DHT22;7567;50.916;6.900;2022-08-21T08:57:45;24.70;1.00
14946;DHT22;7567;50.916;6.900;2022-08-21T09:00:13;25.00;1.00
14946;DHT22;7567;50.916;6.900;2022-08-21T09:02:41;25.20;1.00
14946;DHT22;7567;50.916;6.900;2022-08-21T09:05:17;25.10;1.00
14946;DHT22;7567;50.916;6.900;2022-08-21T09:07:54;25.00;99.90
14946;DHT22;7567;50.916;6.900;2022-08-21T09:10:24;25.00;1.00
14946;DHT22;7567;50.916;6.900;2022-08-21T09:20:41;25.50;1.00
14946;DHT22;7567;50.916;6.900;2022-08-21T09:23:36;25.70;75.90
14946;DHT22;7567;50.916;6.900;2022-08-21T09:26:17;25.60;99.90
14946;DHT22;7567;50.916;6.900;2022-08-21T09:28:44;25.40;1.00
14946;DHT22;7567;50.916;6.900;2022-08-21T09:31:31;25.60;1.00
14946;DHT22;7567;50.916;6.900;2022-08-21T09:34:06;25.70;99.90
14946;DHT22;7567;50.916;6.900;2022-08-21T09:36:52;25.60;99.90
14946;DHT22;7567;50.916;6.900;2022-08-21T09:39:44;25.60;99.90
14946;DHT22;7567;50.916;6.900;2022-08-21T09:42:10;25.50;1.00
14946;DHT22;7567;50.916;6.900;2022-08-21T09:44:40;25.60;99.90
14946;DHT22;7567;50.916;6.900;2022-08-21T09:47:10;25.70;1.00
14946;DHT22;7567;50.916;6.900;2022-08-21T09:49:39;25.90;1.00
14946;DHT22;7567;50.916;6.900;2022-08-21T09:52:22;25.80;1.00
14946;DHT22;7567;50.916;6.900;2022-08-21T09:54:54;25.80;1.00
14946;DHT22;7567;50.916;6.900;2022-08-21T09:57:28;25.90;99.90
14946;DHT22;7567;50.916;6.900;2022-08-21T10:00:26;26.00;1.00
14946;DHT22;7567;50.916;6.900;2022-08-21T10:05:34;26.50;99.90
14946;DHT22;7567;50.916;6.900;2022-08-21T10:08:00;26.60;1.00
14946;DHT22;7567;50.916;6.900;2022-08-21T10:10:30;26.50;1.00
14946;DHT22;7567;50.916;6.900;2022-08-21T10:21:08;26.40;1.00
14946;DHT22;7567;50.916;6.900;2022-08-21T10:26:17;26.80;1.00
14946;DHT22;7567;50.916;6.900;2022-08-21T10:34:16;27.20;99.90
14946;DHT22;7567;50.916;6.900;2022-08-21T10:36:48;27.10;99.90
14946;DHT22;7567;50.916;6.900;2022-08-21T10:39:29;26.80;99.90
14946;DHT22;7567;50.916;6.900;2022-08-21T10:42:33;26.90;99.90
14946;DHT22;7567;50.916;6.900;2022-08-21T10:45:15;26.70;99.90
14946;DHT22;7567;50.916;6.900;2022-08-21T10:47:49;26.40;99.90
14946;DHT22;7567;50.916;6.900;2022-08-21T10:56:25;27.10;1.00
14946;DHT22;7567;50.916;6.900;2022-08-21T10:59:30;27.20;99.90
14946;DHT22;7567;50.916;6.900;2022-08-21T11:05:02;27.50;99.90
14946;DHT22;7567;50.916;6.900;2022-08-21T11:08:17;27.50;1.00
14946;DHT22;7567;50.916;6.900;2022-08-21T11:10:32;27.30;99.90
14946;DHT22;7567;50.916;6.900;2022-08-21T11:13:25;27.30;17.90
14946;DHT22;7567;50.916;6.900;2022-08-21T11:23:26;27.80;93.70
14946;DHT22;7567;50.916;6.900;2022-08-21T11:26:00;27.80;99.90
14946;DHT22;7567;50.916;6.900;2022-08-21T11:29:04;28.00;1.00
14946;DHT22;7567;50.916;6.900;2022-08-21T11:31:46;28.10;1.00
14946;DHT22;7567;50.916;6.900;2022-08-21T11:36:59;28.00;1.00
14946;DHT22;7567;50.916;6.900;2022-08-21T11:39:41;28.10;1.00
14946;DHT22;7567;50.916;6.900;2022-08-21T11:47:41;27.80;1.00
14946;DHT22;7567;50.916;6.900;2022-08-21T11:50:16;27.90;1.00
14946;DHT22;7567;50.916;6.900;2022-08-21T11:52:52;28.00;1.00
14946;DHT22;7567;50.916;6.900;2022-08-21T11:55:33;27.90;1.00
14946;DHT22;7567;50.916;6.900;2022-08-21T11:58:07;28.00;1.00
14946;DHT22;7567;50.916;6.900;2022-08-21T12:00:39;28.10;1.00
14946;DHT22;7567;50.916;6.900;2022-08-21T12:03:17;28.40;1.00
14946;DHT22;7567;50.916;6.900;2022-08-21T12:06:02;28.70;1.00
14946;DHT22;7567;50.916;6.900;2022-08-21T12:08:44;28.90;1.00
14946;DHT22;7567;50.916;6.900;2022-08-21T12:11:24;28.80;1.00
14946;DHT22;7567;50.916;6.900;2022-08-21T12:14:12;28.30;1.00
14946;DHT22;7567;50.916;6.900;2022-08-21T12:16:47;28.00;1.00
14946;DHT22;7567;50.916;6.900;2022-08-21T12:19:27;28.10;1.00
14946;DHT22;7567;50.916;6.900;2022-08-21T12:24:44;28.40;1.00
14946;DHT22;7567;50.916;6.900;2022-08-21T12:27:28;28.50;1.00
14946;DHT22;7567;50.916;6.900;2022-08-21T12:30:18;28.60;1.00
14946;DHT22;7567;50.916;6.900;2022-08-21T12:32:53;29.00;1.00
14946;DHT22;7567;50.916;6.900;2022-08-21T12:35:32;28.90;1.00
14946;DHT22;7567;50.916;6.900;2022-08-21T12:38:20;28.80;1.00
14946;DHT22;7567;50.916;6.900;2022-08-21T12:40:52;29.10;1.00
14946;DHT22;7567;50.916;6.900;2022-08-21T12:43:33;28.80;1.00
14946;DHT22;7567;50.916;6.900;2022-08-21T12:46:00;29.00;1.00
14946;DHT22;7567;50.916;6.900;2022-08-21T12:48:43;28.90;1.00
14946;DHT22;7567;50.916;6.900;2022-08-21T12:51:28;29.20;1.00
14946;DHT22;7567;50.916;6.900;2022-08-21T12:53:58;29.10;1.00
14946;DHT22;7567;50.916;6.900;2022-08-21T12:56:29;28.80;1.00
14946;DHT22;7567;50.916;6.900;2022-08-21T12:59:01;28.60;1.00
14946;DHT22;7567;50.916;6.900;2022-08-21T13:01:35;28.60;1.00
14946;DHT22;7567;50.916;6.900;2022-08-21T13:04:05;28.80;1.00
14946;DHT22;7567;50.916;6.900;2022-08-21T13:06:41;29.10;1.00
14946;DHT22;7567;50.916;6.900;2022-08-21T13:09:10;29.20;1.00
14946;DHT22;7567;50.916;6.900;2022-08-21T13:11:37;29.20;1.00
14946;DHT22;7567;50.916;6.900;2022-08-21T13:14:05;29.40;1.00
14946;DHT22;7567;50.916;6.900;2022-08-21T13:16:35;29.50;1.00
14946;DHT22;7567;50.916;6.900;2022-08-21T13:19:06;29.50;1.00
14946;DHT22;7567;50.916;6.900;2022-08-21T13:21:41;29.50;1.00
14946;DHT22;7567;50.916;6.900;2022-08-21T13:24:33;29.60;1.00
14946;DHT22;7567;50.916;6.900;2022-08-21T13:27:00;29.70;1.00
14946;DHT22;7567;50.916;6.900;2022-08-21T13:29:31;29.30;1.00
14946;DHT22;7567;50.916;6.900;2022-08-21T13:32:01;28.90;1.00
14946;DHT22;7567;50.916;6.900;2022-08-21T13:34:34;28.50;1.00
14946;DHT22;7567;50.916;6.900;2022-08-21T13:37:04;28.10;1.00
14946;DHT22;7567;50.916;6.900;2022-08-21T13:39:31;28.00;1.00
14946;DHT22;7567;50.916;6.900;2022-08-21T13:42:00;28.40;1.00
14946;DHT22;7567;50.916;6.900;2022-08-21T13:44:43;28.70;1.00
14946;DHT22;7567;50.916;6.900;2022-08-21T13:47:11;28.80;1.00
14946;DHT22;7567;50.916;6.900;2022-08-21T13:49:47;29.30;1.00
14946;DHT22;7567;50.916;6.900;2022-08-21T13:52:20;29.40;1.00
14946;DHT22;7567;50.916;6.900;2022-08-21T13:57:29;29.60;1.00
14946;DHT22;7567;50.916;6.900;2022-08-21T14:00:25;29.40;1.00
14946;DHT22;7567;50.916;6.900;2022-08-21T14:02:53;29.40;1.00
14946;DHT22;7567;50.916;6.900;2022-08-21T14:05:26;29.20;1.00
14946;DHT22;7567;50.916;6.900;2022-08-21T14:08:14;29.30;1.00
14946;DHT22;7567;50.916;6.900;2022-08-21T14:10:48;29.20;1.00
14946;DHT22;7567;50.916;6.900;2022-08-21T14:13:49;29.30;1.00
14946;DHT22;7567;50.916;6.900;2022-08-21T14:16:25;29.40;1.00
14946;DHT22;7567;50.916;6.900;2022-08-21T14:21:34;29.20;1.00
14946;DHT22;7567;50.916;6.900;2022-08-21T14:24:14;28.80;1.00
14946;DHT22;7567;50.916;6.900;2022-08-21T14:26:53;28.50;1.00
14946;DHT22;7567;50.916;6.900;2022-08-21T14:29:21;28.40;1.00
14946;DHT22;7567;50.916;6.900;2022-08-21T14:31:53;28.40;1.00
14946;DHT22;7567;50.916;6.900;2022-08-21T14:34:22;28.20;1.00
14946;DHT22;7567;50.916;6.900;2022-08-21T14:36:49;27.90;1.00
14946;DHT22;7567;50.916;6.900;2022-08-21T14:39:16;27.80;1.00
14946;DHT22;7567;50.916;6.900;2022-08-21T14:41:42;27.70;1.00
14946;DHT22;7567;50.916;6.900;2022-08-21T14:44:09;27.60;1.00
14946;DHT22;7567;50.916;6.900;2022-08-21T14:46:36;27.50;1.00
14946;DHT22;7567;50.916;6.900;2022-08-21T14:49:03;27.30;1.00
14946;DHT22;7567;50.916;6.900;2022-08-21T14:51:29;27.20;1.00
14946;DHT22;7567;50.916;6.900;2022-08-21T14:53:55;27.10;1.00
14946;DHT22;7567;50.916;6.900;2022-08-21T14:56:21;26.90;1.00
14946;DHT22;7567;50.916;6.900;2022-08-21T14:58:49;26.90;1.00
14946;DHT22;7567;50.916;6.900;2022-08-21T15:01:17;26.70;1.00
14946;DHT22;7567;50.916;6.900;2022-08-21T15:03:44;26.70;1.00
14946;DHT22;7567;50.916;6.900;2022-08-21T15:06:11;26.60;1.00
14946;DHT22;7567;50.916;6.900;2022-08-21T15:08:37;26.50;1.00
14946;DHT22;7567;50.916;6.900;2022-08-21T15:11:04;26.50;1.00
14946;DHT22;7567;50.916;6.900;2022-08-21T15:13:31;26.50;1.00
14946;DHT22;7567;50.916;6.900;2022-08-21T15:15:57;26.50;1.00
14946;DHT22;7567;50.916;6.900;2022-08-21T15:18:26;26.40;1.00
14946;DHT22;7567;50.916;6.900;2022-08-21T15:20:53;26.40;1.00
14946;DHT22;7567;50.916;6.900;2022-08-21T15:23:19;26.30;1.00
14946;DHT22;7567;50.916;6.900;2022-08-21T15:25:46;26.30;1.00
14946;DHT22;7567;50.916;6.900;2022-08-21T15:28:14;26.30;1.00
14946;DHT22;7567;50.916;6.900;2022-08-21T15:30:41;26.30;1.00
14946;DHT22;7567;50.916;6.900;2022-08-21T15:33:08;26.10;95.60
14946;DHT22;7567;50.916;6.900;2022-08-21T15:35:34;26.10;1.00
14946;DHT22;7567;50.916;6.900;2022-08-21T15:38:00;26.10;99.90
14946;DHT22;7567;50.916;6.900;2022-08-21T15:40:27;26.00;99.90
14946;DHT22;7567;50.916;6.900;2022-08-21T15:42:57;26.00;1.00
14946;DHT22;7567;50.916;6.900;2022-08-21T15:45:24;26.10;1.00
14946;DHT22;7567;50.916;6.900;2022-08-21T15:47:51;26.10;9.00
14946;DHT22;7567;50.916;6.900;2022-08-21T15:50:18;26.20;1.00
14946;DHT22;7567;50.916;6.900;2022-08-21T15:52:44;26.20;1.00
14946;DHT22;7567;50.916;6.900;2022-08-21T15:55:10;26.30;1.00
14946;DHT22;7567;50.916;6.900;2022-08-21T15:57:37;26.30;1.00
14946;DHT22;7567;50.916;6.900;2022-08-21T16:00:10;26.20;1.00
14946;DHT22;7567;50.916;6.900;2022-08-21T16:02:40;26.30;1.00
14946;DHT22;7567;50.916;6.900;2022-08-21T16:05:08;26.30;18.90
14946;DHT22;7567;50.916;6.900;2022-08-21T16:07:36;26.30;1.00
14946;DHT22;7567;50.916;6.900;2022-08-21T16:10:03;26.40;1.00
14946;DHT22;7567;50.916;6.900;2022-08-21T16:12:31;26.60;1.00
14946;DHT22;7567;50.916;6.900;2022-08-21T16:15:02;26.70;1.00
14946;DHT22;7567;50.916;6.900;2022-08-21T16:17:31;26.80;1.00
14946;DHT22;7567;50.916;6.900;2022-08-21T16:19:58;26.70;1.00
14946;DHT22;7567;50.916;6.900;2022-08-21T16:22:25;26.70;1.00
14946;DHT22;7567;50.916;6.900;2022-08-21T16:24:50;26.80;1.00
14946;DHT22;7567;50.916;6.900;2022-08-21T16:27:16;26.90;1.00
14946;DHT22;7567;50.916;6.900;2022-08-21T16:29:45;27.10;1.00
14946;DHT22;7567;50.916;6.900;2022-08-21T16:32:11;27.20;1.00
14946;DHT22;7567;50.916;6.900;2022-08-21T16:34:40;27.30;1.00
14946;DHT22;7567;50.916;6.900;2022-08-21T16:37:07;27.40;1.00
14946;DHT22;7567;50.916;6.900;2022-08-21T16:39:33;27.40;1.00
14946;DHT22;7567;50.916;6.900;2022-08-21T16:41:59;27.40;1.00
14946;DHT22;7567;50.916;6.900;2022-08-21T16:44:25;27.60;1.00
14946;DHT22;7567;50.916;6.900;2022-08-21T16:46:51;27.60;1.00
14946;DHT22;7567;50.916;6.900;2022-08-21T16:49:17;27.20;1.00
14946;DHT22;7567;50.916;6.900;2022-08-21T16:51:43;27.10;1.00
14946;DHT22;7567;50.916;6.900;2022-08-21T16:54:09;27.00;1.00
14946;DHT22;7567;50.916;6.900;2022-08-21T16:56:35;26.80;1.00
14946;DHT22;7567;50.916;6.900;2022-08-21T16:59:02;26.60;1.00
14946;DHT22;7567;50.916;6.900;2022-08-21T17:01:31;26.40;1.00
14946;DHT22;7567;50.916;6.900;2022-08-21T17:03:58;26.20;1.00
14946;DHT22;7567;50.916;6.900;2022-08-21T17:06:24;26.10;1.00
14946;DHT22;7567;50.916;6.900;2022-08-21T17:08:51;26.00;1.00
14946;DHT22;7567;50.916;6.900;2022-08-21T17:13:52;25.90;1.00